KRFD

Chicago / Rockford International Airport

Chicago/Rockford, Illinois, USA
METAR KRFD 220154Z 06007KT 3SM BR OVC003 15/14 A2999 RMK AO2 SLP157 T01500144
Observed Flight Rules
May-22 @ 01:54 UTC (46 minutes ago) Instrument Flight Rules
Wind Visibility Clouds Conditions
60° at 7 knots 3 miles
  • Overcast at 300' AGL
  • Mist
Temperatures Readings
Current 15°C / 59°F
Dewpoint 14°C / 57°F
Humidity 94%
Altimeter 29.99" Hg
Pressure 1015.7 hPa
Elevation 221
METAR KRFD 220154Z 06007KT 3SM BR OVC003 15/14 A2999 RMK AO2 SLP157 T01500144
Observed Flight Rules
May-22 @ 01:54 UTC
(46 minutes ago)
LIFR
Wind Visibility
60° at 7 knots 3 miles
Clouds
  • Overcast at 300' AGL
Conditions
  • Mist
Temperature Dewpoint
15°C / 59°F 14°C / 57°F
Humidity Altimeter Pressure
94% 29.99" Hg 1015.7 hPa